createdAt,value
2017-03-21T00:00:16.415Z,0
2017-03-21T00:00:56.986Z,0
2017-03-21T00:01:37.574Z,0
2017-03-21T00:02:18.151Z,0
2017-03-21T00:02:58.725Z,0
2017-03-21T00:03:39.299Z,0
2017-03-21T00:04:19.870Z,0
2017-03-21T00:05:00.465Z,0
2017-03-21T00:05:41.089Z,0
2017-03-21T00:06:21.693Z,0
2017-03-21T00:07:02.254Z,0
2017-03-21T00:07:42.825Z,0
2017-03-21T00:08:23.399Z,0
2017-03-21T00:09:03.985Z,0
2017-03-21T00:09:44.607Z,0
2017-03-21T00:10:25.210Z,0
2017-03-21T00:11:05.960Z,0
2017-03-21T00:11:46.688Z,0
2017-03-21T00:12:27.371Z,0
2017-03-21T00:13:07.997Z,0
2017-03-21T00:13:48.616Z,0
2017-03-21T00:14:29.178Z,0
2017-03-21T00:15:09.785Z,0
2017-03-21T00:15:50.376Z,0
2017-03-21T00:16:30.967Z,0
2017-03-21T00:17:11.580Z,0
2017-03-21T00:17:52.161Z,0
2017-03-21T00:18:32.763Z,0
2017-03-21T00:19:13.342Z,0
2017-03-21T00:19:53.913Z,0
2017-03-21T00:20:34.504Z,0
2017-03-21T00:21:15.123Z,0
2017-03-21T00:21:55.709Z,0
2017-03-21T00:22:36.319Z,0
2017-03-21T00:23:16.938Z,0
2017-03-21T00:23:57.529Z,0
2017-03-21T00:24:38.112Z,0
2017-03-21T00:25:18.692Z,0
2017-03-21T00:25:59.264Z,0
2017-03-21T00:26:39.860Z,0
2017-03-21T00:27:20.477Z,0
2017-03-21T00:28:01.078Z,0
2017-03-21T00:28:41.690Z,0
2017-03-21T00:29:22.375Z,0
2017-03-21T00:30:02.952Z,0
2017-03-21T00:30:43.540Z,0
2017-03-21T00:31:24.135Z,0
2017-03-21T00:32:04.736Z,0
2017-03-21T00:32:45.319Z,0
2017-03-21T00:33:25.935Z,0
2017-03-21T00:34:06.508Z,0
2017-03-21T00:34:47.087Z,0
2017-03-21T00:35:27.698Z,0
2017-03-21T00:36:08.303Z,0
2017-03-21T00:36:48.876Z,0
2017-03-21T00:37:29.579Z,0
2017-03-21T00:38:10.156Z,0
2017-03-21T00:38:50.801Z,0
2017-03-21T00:39:31.417Z,0
2017-03-21T00:40:11.988Z,0
2017-03-21T00:40:52.573Z,0
2017-03-21T00:41:33.177Z,0
2017-03-21T00:42:13.764Z,0
2017-03-21T00:42:54.363Z,0
2017-03-21T00:43:34.929Z,0
2017-03-21T00:44:15.521Z,0
2017-03-21T00:44:56.111Z,0
2017-03-21T00:45:36.698Z,0
2017-03-21T00:46:17.295Z,0
2017-03-21T00:46:57.864Z,0
2017-03-21T00:47:38.505Z,0
2017-03-21T00:48:19.122Z,0
2017-03-21T00:48:59.687Z,0
2017-03-21T00:49:40.277Z,0
2017-03-21T00:50:20.898Z,0
2017-03-21T00:51:01.589Z,0
2017-03-21T00:51:42.198Z,0
2017-03-21T00:52:22.802Z,0
2017-03-21T00:53:03.411Z,0
2017-03-21T00:53:44.000Z,0
2017-03-21T00:54:24.664Z,0
2017-03-21T00:55:05.238Z,0
2017-03-21T00:55:45.811Z,0
2017-03-21T00:56:26.403Z,0
2017-03-21T00:57:06.977Z,0
2017-03-21T00:57:47.654Z,0
2017-03-21T00:58:28.249Z,0
2017-03-21T00:59:08.825Z,0
2017-03-21T00:59:49.427Z,0
2017-03-21T01:00:30.012Z,0
2017-03-21T01:01:11.401Z,0
2017-03-21T01:01:51.996Z,0
2017-03-21T01:02:32.580Z,0
2017-03-21T01:03:13.135Z,0
2017-03-21T01:03:53.702Z,0
2017-03-21T01:04:34.286Z,0
2017-03-21T01:05:14.866Z,0
2017-03-21T01:05:55.444Z,0
2017-03-21T01:06:36.019Z,0
2017-03-21T01:07:16.609Z,0
2017-03-21T01:07:57.205Z,0
2017-03-21T01:08:37.804Z,0
2017-03-21T01:09:18.420Z,0
2017-03-21T01:09:59.017Z,0
2017-03-21T01:10:39.608Z,0
2017-03-21T01:11:20.357Z,0
2017-03-21T01:12:00.956Z,0
2017-03-21T01:12:41.553Z,0
2017-03-21T01:13:22.108Z,0
2017-03-21T01:14:02.685Z,0
2017-03-21T01:14:43.294Z,0
2017-03-21T01:15:23.927Z,0
2017-03-21T01:16:04.516Z,0
2017-03-21T01:16:45.120Z,0
2017-03-21T01:17:25.700Z,0
2017-03-21T01:18:06.269Z,0
2017-03-21T01:18:46.861Z,0
2017-03-21T01:19:27.460Z,0
2017-03-21T01:20:08.032Z,0
2017-03-21T01:20:48.616Z,0
2017-03-21T01:21:29.192Z,0
2017-03-21T01:22:09.760Z,0
2017-03-21T01:22:50.345Z,0
2017-03-21T01:23:30.954Z,0
2017-03-21T01:24:11.512Z,0
2017-03-21T01:24:52.133Z,0
2017-03-21T01:25:32.764Z,0
2017-03-21T01:26:13.335Z,0
2017-03-21T01:26:53.916Z,0
2017-03-21T01:27:34.491Z,0
2017-03-21T01:28:15.057Z,0
2017-03-21T01:28:55.638Z,0
2017-03-21T01:29:36.221Z,0
2017-03-21T01:30:16.804Z,0
2017-03-21T01:30:57.373Z,0
2017-03-21T01:31:37.973Z,0
2017-03-21T01:32:18.569Z,0
2017-03-21T01:32:59.154Z,0
2017-03-21T01:33:39.723Z,0
2017-03-21T01:34:20.312Z,0
2017-03-21T01:35:00.895Z,0
2017-03-21T01:35:41.498Z,0
2017-03-21T01:36:22.083Z,0
2017-03-21T01:37:02.635Z,0
2017-03-21T01:37:43.216Z,0
2017-03-21T01:38:23.796Z,0
2017-03-21T01:39:04.398Z,0
2017-03-21T01:39:44.973Z,0
2017-03-21T01:40:25.558Z,0
2017-03-21T01:41:06.161Z,0
2017-03-21T01:41:46.753Z,0
2017-03-21T01:42:27.314Z,0
2017-03-21T01:43:07.907Z,0
2017-03-21T01:43:48.491Z,0
2017-03-21T01:44:29.072Z,0
2017-03-21T01:45:09.681Z,0
2017-03-21T01:45:50.267Z,0
2017-03-21T01:46:30.891Z,0
2017-03-21T01:47:11.470Z,0
2017-03-21T01:47:52.069Z,0
2017-03-21T01:48:32.656Z,0
2017-03-21T01:49:13.290Z,0
2017-03-21T01:49:53.864Z,0
2017-03-21T01:50:34.451Z,0
2017-03-21T01:51:15.025Z,0
2017-03-21T01:51:55.648Z,0
2017-03-21T01:52:36.243Z,0
2017-03-21T01:53:16.821Z,0
2017-03-21T01:53:57.389Z,0
2017-03-21T01:54:37.967Z,0
2017-03-21T01:55:18.634Z,0
2017-03-21T01:55:59.218Z,0
2017-03-21T01:56:39.795Z,0
2017-03-21T01:57:20.448Z,0
2017-03-21T01:58:01.095Z,0
2017-03-21T01:58:42.085Z,0
2017-03-21T01:59:22.656Z,0
2017-03-21T02:00:03.267Z,0
2017-03-21T02:00:43.935Z,0
2017-03-21T02:01:24.514Z,0
2017-03-21T02:02:05.109Z,0
2017-03-21T02:02:45.681Z,0
2017-03-21T02:03:26.244Z,0
2017-03-21T02:04:06.847Z,0
2017-03-21T02:04:47.452Z,0
2017-03-21T02:05:28.050Z,0
2017-03-21T02:06:08.600Z,0
2017-03-21T02:06:49.195Z,0
2017-03-21T02:07:29.772Z,0
2017-03-21T02:08:10.346Z,0
2017-03-21T02:08:50.931Z,0
2017-03-21T02:09:31.508Z,0
2017-03-21T02:10:12.107Z,0
2017-03-21T02:10:52.692Z,0
2017-03-21T02:11:33.256Z,0
2017-03-21T02:12:13.880Z,0
2017-03-21T02:12:54.466Z,0
2017-03-21T02:13:35.050Z,0
2017-03-21T02:14:15.644Z,0
2017-03-21T02:14:56.224Z,0
2017-03-21T02:15:36.819Z,0
2017-03-21T02:16:17.394Z,0
2017-03-21T02:16:57.964Z,0
2017-03-21T02:17:38.547Z,0
2017-03-21T02:18:19.139Z,0
2017-03-21T02:18:59.710Z,0
2017-03-21T02:19:40.284Z,0
2017-03-21T02:20:20.886Z,0
2017-03-21T02:21:01.484Z,0
2017-03-21T02:21:42.049Z,0
2017-03-21T02:22:22.656Z,0
2017-03-21T02:23:03.242Z,0
2017-03-21T02:23:43.896Z,0
2017-03-21T02:24:24.512Z,0
2017-03-21T02:25:05.100Z,0
2017-03-21T02:25:45.683Z,0
2017-03-21T02:26:26.269Z,0
2017-03-21T02:27:06.871Z,0
2017-03-21T02:27:47.459Z,0
2017-03-21T02:28:28.030Z,0
2017-03-21T02:29:08.614Z,0
2017-03-21T02:29:49.211Z,0
2017-03-21T02:30:29.778Z,0
2017-03-21T02:31:10.423Z,0
2017-03-21T02:31:51.057Z,0
2017-03-21T02:32:31.636Z,0
2017-03-21T02:33:12.234Z,0
2017-03-21T02:33:52.831Z,0
2017-03-21T02:34:33.412Z,0
2017-03-21T02:35:13.986Z,0
2017-03-21T02:35:54.586Z,0
2017-03-21T02:36:35.196Z,0
2017-03-21T02:37:15.871Z,0
2017-03-21T02:37:56.441Z,0
2017-03-21T02:38:37.016Z,0
2017-03-21T02:39:17.637Z,0
2017-03-21T02:39:58.248Z,0
2017-03-21T02:40:38.829Z,0
2017-03-21T02:41:19.401Z,0
2017-03-21T02:42:00.029Z,0
2017-03-21T02:42:40.624Z,0
2017-03-21T02:43:21.195Z,0
2017-03-21T02:44:01.750Z,0
2017-03-21T02:44:42.339Z,0
2017-03-21T02:45:22.932Z,0
2017-03-21T02:46:03.538Z,0
2017-03-21T02:46:44.105Z,0
2017-03-21T02:47:24.733Z,0
2017-03-21T02:48:05.321Z,0
2017-03-21T02:48:45.910Z,0
2017-03-21T02:49:26.495Z,0
2017-03-21T02:50:07.070Z,0
2017-03-21T02:50:47.662Z,0
2017-03-21T02:51:28.255Z,0
2017-03-21T02:52:08.865Z,0
2017-03-21T02:52:49.471Z,0
2017-03-21T02:53:30.070Z,0
2017-03-21T02:54:10.691Z,0
2017-03-21T02:54:51.268Z,0
2017-03-21T02:55:31.871Z,0
2017-03-21T02:56:12.460Z,0
2017-03-21T02:56:53.062Z,0
2017-03-21T02:57:33.663Z,0
2017-03-21T02:58:14.252Z,0
2017-03-21T02:58:54.837Z,0
2017-03-21T02:59:35.421Z,0
2017-03-21T03:00:16.021Z,0
2017-03-21T03:00:56.609Z,0
2017-03-21T03:01:37.257Z,0
2017-03-21T03:02:17.864Z,0
2017-03-21T03:02:58.455Z,0
2017-03-21T03:03:39.067Z,0
2017-03-21T03:04:19.718Z,0
2017-03-21T03:05:00.287Z,0
2017-03-21T03:05:40.899Z,0
2017-03-21T03:06:21.512Z,0
2017-03-21T03:07:02.105Z,0
2017-03-21T03:07:42.744Z,0
2017-03-21T03:08:23.335Z,0
2017-03-21T03:09:03.908Z,0
2017-03-21T03:09:44.475Z,0
2017-03-21T03:10:25.090Z,0
2017-03-21T03:11:05.673Z,0
2017-03-21T03:11:46.275Z,0
2017-03-21T03:12:26.877Z,0
2017-03-21T03:13:07.449Z,0
2017-03-21T03:13:48.049Z,0
2017-03-21T03:14:28.665Z,0
2017-03-21T03:15:09.234Z,0
2017-03-21T03:15:49.831Z,0
2017-03-21T03:16:30.454Z,0
2017-03-21T03:17:11.030Z,0
2017-03-21T03:17:51.632Z,0
2017-03-21T03:18:32.270Z,0
2017-03-21T03:19:12.847Z,0
2017-03-21T03:19:53.448Z,0
2017-03-21T03:20:34.024Z,0
2017-03-21T03:21:14.601Z,0
2017-03-21T03:21:55.235Z,0
2017-03-21T03:22:35.837Z,0
2017-03-21T03:23:16.427Z,0
2017-03-21T03:23:57.025Z,0
2017-03-21T03:24:37.612Z,0
2017-03-21T03:25:18.211Z,0
2017-03-21T03:25:58.798Z,0
2017-03-21T03:26:39.412Z,0
2017-03-21T03:27:19.983Z,0
2017-03-21T03:28:00.588Z,0
2017-03-21T03:28:41.190Z,0
2017-03-21T03:29:21.780Z,0
2017-03-21T03:30:02.350Z,0
2017-03-21T03:30:42.948Z,0
2017-03-21T03:31:23.538Z,0
2017-03-21T03:32:04.129Z,0
2017-03-21T03:32:44.699Z,0
2017-03-21T03:33:25.265Z,0
2017-03-21T03:34:05.849Z,0
2017-03-21T03:34:46.422Z,0
2017-03-21T03:35:27.014Z,0
2017-03-21T03:36:07.659Z,0
2017-03-21T03:36:48.228Z,0
2017-03-21T03:37:28.825Z,0
2017-03-21T03:38:09.399Z,0
2017-03-21T03:38:49.974Z,0
2017-03-21T03:39:30.565Z,0
2017-03-21T03:40:11.157Z,0
2017-03-21T03:40:51.816Z,0
2017-03-21T03:41:32.420Z,0
2017-03-21T03:42:13.002Z,0
2017-03-21T03:42:53.577Z,0
2017-03-21T03:43:34.158Z,0
2017-03-21T03:44:14.725Z,0
2017-03-21T03:44:55.328Z,0
2017-03-21T03:45:35.902Z,0
2017-03-21T03:46:16.479Z,0
2017-03-21T03:46:57.051Z,0
2017-03-21T03:47:37.630Z,0
2017-03-21T03:48:18.234Z,0
2017-03-21T03:48:58.808Z,0
2017-03-21T03:49:39.404Z,0
2017-03-21T03:50:20.004Z,0
2017-03-21T03:51:00.593Z,0
2017-03-21T03:51:41.170Z,0
2017-03-21T03:52:21.743Z,0
2017-03-21T03:53:02.317Z,0
2017-03-21T03:53:42.925Z,0
2017-03-21T03:54:23.498Z,0
2017-03-21T03:55:04.085Z,0
2017-03-21T03:55:44.651Z,0
2017-03-21T03:56:25.235Z,0
2017-03-21T03:57:05.806Z,0
2017-03-21T03:57:46.412Z,0
2017-03-21T03:58:27.014Z,0
2017-03-21T03:59:07.627Z,0
2017-03-21T03:59:48.204Z,0
2017-03-21T04:00:28.857Z,0
2017-03-21T04:01:09.445Z,0
2017-03-21T04:01:50.027Z,0
2017-03-21T04:02:30.675Z,0
2017-03-21T04:03:11.223Z,0
2017-03-21T04:03:51.850Z,0
2017-03-21T04:04:32.436Z,0
2017-03-21T04:05:13.049Z,0
2017-03-21T04:05:53.640Z,0
2017-03-21T04:06:34.241Z,0
2017-03-21T04:07:14.814Z,0
2017-03-21T04:07:55.468Z,0
2017-03-21T04:08:36.042Z,0
2017-03-21T04:09:16.627Z,0
2017-03-21T04:09:57.230Z,0
2017-03-21T04:10:37.805Z,0
2017-03-21T04:11:18.425Z,0
2017-03-21T04:11:59.029Z,0
2017-03-21T04:12:39.652Z,0
2017-03-21T04:13:20.237Z,0
2017-03-21T04:14:00.830Z,0
2017-03-21T04:14:41.394Z,0
2017-03-21T04:15:21.981Z,0
2017-03-21T04:16:02.587Z,0
2017-03-21T04:16:43.164Z,0
2017-03-21T04:17:23.743Z,0
2017-03-21T04:18:04.330Z,0
2017-03-21T04:18:44.911Z,0
2017-03-21T04:19:25.485Z,0
2017-03-21T04:20:06.072Z,0
2017-03-21T04:20:46.654Z,0
2017-03-21T04:21:27.310Z,0
2017-03-21T04:22:07.880Z,0
2017-03-21T04:22:48.480Z,0
2017-03-21T04:23:29.090Z,0
2017-03-21T04:24:09.691Z,0
2017-03-21T04:24:50.276Z,0
2017-03-21T04:25:30.902Z,0
2017-03-21T04:26:11.479Z,0
2017-03-21T04:26:52.091Z,0
2017-03-21T04:27:32.696Z,0
2017-03-21T04:28:13.311Z,0
2017-03-21T04:28:53.884Z,0
2017-03-21T04:29:34.475Z,0
2017-03-21T04:30:15.070Z,0
2017-03-21T04:30:55.743Z,0
2017-03-21T04:31:36.270Z,0
2017-03-21T04:32:16.842Z,0
2017-03-21T04:32:57.427Z,0
2017-03-21T04:33:38.040Z,0
2017-03-21T04:34:18.643Z,0
2017-03-21T04:34:59.224Z,0
2017-03-21T04:35:39.815Z,0
2017-03-21T04:36:20.448Z,0
2017-03-21T04:37:01.047Z,0
2017-03-21T04:37:41.620Z,0
2017-03-21T04:38:22.212Z,0
2017-03-21T04:39:02.800Z,0
2017-03-21T04:39:43.392Z,0
2017-03-21T04:40:23.979Z,0
2017-03-21T04:41:04.640Z,0
2017-03-21T04:41:45.182Z,0
2017-03-21T04:42:25.768Z,0
2017-03-21T04:43:06.365Z,0
2017-03-21T04:43:46.959Z,0
2017-03-21T04:44:27.562Z,0
2017-03-21T04:45:08.155Z,0
2017-03-21T04:45:48.747Z,0
2017-03-21T04:46:29.393Z,0
2017-03-21T04:47:09.941Z,0
2017-03-21T04:47:50.522Z,0
2017-03-21T04:48:31.108Z,0
2017-03-21T04:49:11.693Z,0
2017-03-21T04:49:52.276Z,0
2017-03-21T04:50:32.861Z,0
2017-03-21T04:51:13.490Z,0
2017-03-21T04:51:54.065Z,0
2017-03-21T04:52:34.678Z,0
2017-03-21T04:53:15.254Z,0
2017-03-21T04:53:55.840Z,0
2017-03-21T04:54:36.403Z,0
2017-03-21T04:55:16.992Z,0
2017-03-21T04:55:57.582Z,0
2017-03-21T04:56:38.187Z,0
2017-03-21T04:57:18.785Z,0
2017-03-21T04:57:59.366Z,0
2017-03-21T04:58:39.973Z,0
2017-03-21T04:59:20.566Z,0
2017-03-21T05:00:01.183Z,0
2017-03-21T05:00:41.757Z,0
2017-03-21T05:01:22.366Z,0
2017-03-21T05:02:02.969Z,0
2017-03-21T05:02:43.536Z,0
2017-03-21T05:03:24.134Z,0
2017-03-21T05:04:04.704Z,0
2017-03-21T05:04:45.289Z,0
2017-03-21T05:05:25.857Z,0
2017-03-21T05:06:06.444Z,0
2017-03-21T05:06:47.026Z,0
2017-03-21T05:07:27.609Z,0
2017-03-21T05:08:08.206Z,0
2017-03-21T05:08:48.800Z,0
2017-03-21T05:09:29.391Z,0
2017-03-21T05:10:09.963Z,0
2017-03-21T05:10:50.565Z,0
2017-03-21T05:11:31.165Z,0
2017-03-21T05:12:11.833Z,0
2017-03-21T05:12:52.438Z,0
2017-03-21T05:13:33.011Z,0
2017-03-21T05:14:13.630Z,0
2017-03-21T05:14:54.236Z,0
2017-03-21T05:15:34.861Z,0
2017-03-21T05:16:15.468Z,0
2017-03-21T05:16:56.048Z,0
2017-03-21T05:17:36.644Z,0
2017-03-21T05:18:17.228Z,0
2017-03-21T05:18:57.830Z,0
2017-03-21T05:19:38.429Z,0
2017-03-21T05:20:19.107Z,5
2017-03-21T05:20:59.728Z,5
2017-03-21T05:21:40.330Z,5
2017-03-21T05:22:20.942Z,5
2017-03-21T05:23:01.539Z,5
2017-03-21T05:23:42.126Z,10
2017-03-21T05:24:22.694Z,5
2017-03-21T05:25:03.272Z,5
2017-03-21T05:25:43.832Z,5
2017-03-21T05:26:24.394Z,5
2017-03-21T05:27:05.009Z,5
2017-03-21T05:27:45.600Z,5
2017-03-21T05:28:26.232Z,5
2017-03-21T05:29:06.889Z,5
2017-03-21T05:29:47.504Z,5
2017-03-21T05:30:28.184Z,5
2017-03-21T05:31:08.840Z,5
2017-03-21T05:31:49.457Z,5
2017-03-21T05:32:30.032Z,5
2017-03-21T05:33:10.623Z,5
2017-03-21T05:33:51.243Z,5
2017-03-21T05:34:31.853Z,5
2017-03-21T05:35:12.474Z,5
2017-03-21T05:35:53.100Z,5
2017-03-21T05:36:33.682Z,5
2017-03-21T05:37:14.308Z,5
2017-03-21T05:37:54.940Z,5
2017-03-21T05:38:35.535Z,5
2017-03-21T05:39:16.170Z,5
2017-03-21T05:39:56.721Z,5
2017-03-21T05:40:37.325Z,5
2017-03-21T05:41:17.901Z,5
2017-03-21T05:41:58.518Z,5
2017-03-21T05:42:39.086Z,5
2017-03-21T05:43:19.673Z,5
2017-03-21T05:44:00.240Z,5
2017-03-21T05:44:40.812Z,5
2017-03-21T05:45:21.401Z,5
2017-03-21T05:46:02.001Z,5
2017-03-21T05:46:42.618Z,5
2017-03-21T05:47:23.206Z,10
2017-03-21T05:48:03.798Z,10
2017-03-21T05:48:44.399Z,10
2017-03-21T05:49:25.015Z,10
2017-03-21T05:50:05.624Z,5
2017-03-21T05:50:46.214Z,5
2017-03-21T05:51:26.834Z,5
2017-03-21T05:52:07.418Z,5
2017-03-21T05:52:48.017Z,5
2017-03-21T05:53:28.605Z,5
2017-03-21T05:54:09.177Z,5
2017-03-21T05:54:49.799Z,5
2017-03-21T05:55:30.485Z,5
2017-03-21T05:56:11.079Z,5
2017-03-21T05:56:51.734Z,10
2017-03-21T05:57:32.524Z,10
2017-03-21T05:58:13.256Z,10
2017-03-21T05:58:54.001Z,10
2017-03-21T05:59:34.724Z,10
2017-03-21T06:00:15.469Z,10
2017-03-21T06:00:56.247Z,10
2017-03-21T06:01:37.009Z,10
2017-03-21T06:02:17.953Z,10
2017-03-21T06:02:58.750Z,10
2017-03-21T06:03:39.520Z,10
2017-03-21T06:04:20.478Z,10
2017-03-21T06:05:01.200Z,15
2017-03-21T06:05:41.946Z,15
2017-03-21T06:06:22.618Z,20
2017-03-21T06:07:03.426Z,20
2017-03-21T06:07:44.275Z,20
2017-03-21T06:08:25.017Z,20
2017-03-21T06:09:05.810Z,20
2017-03-21T06:09:46.633Z,20
2017-03-21T06:10:27.227Z,20
2017-03-21T06:11:08.031Z,20
2017-03-21T06:11:48.800Z,20
2017-03-21T06:12:29.707Z,20
2017-03-21T06:13:10.492Z,25
2017-03-21T06:13:51.223Z,35
2017-03-21T06:14:31.917Z,40
2017-03-21T06:15:12.764Z,40
2017-03-21T06:15:53.510Z,35
2017-03-21T06:16:34.223Z,30
2017-03-21T06:17:15.015Z,30
2017-03-21T06:17:55.812Z,30
2017-03-21T06:18:36.748Z,30
2017-03-21T06:19:17.467Z,30
2017-03-21T06:19:58.125Z,35
2017-03-21T06:20:38.942Z,40
2017-03-21T06:21:19.600Z,45
2017-03-21T06:22:00.458Z,50
2017-03-21T06:22:41.149Z,50
2017-03-21T06:23:21.820Z,55
2017-03-21T06:24:02.522Z,75
2017-03-21T06:24:43.224Z,85
2017-03-21T06:25:23.884Z,90
2017-03-21T06:26:04.613Z,90
2017-03-21T06:26:45.236Z,90
2017-03-21T06:27:25.959Z,90
2017-03-21T06:28:06.708Z,95
2017-03-21T06:28:47.389Z,105
2017-03-21T06:29:28.082Z,105
2017-03-21T06:30:08.862Z,115
2017-03-21T06:30:54.686Z,115
2017-03-21T06:31:49.235Z,110
2017-03-21T06:32:29.948Z,95
2017-03-21T06:33:10.774Z,75
2017-03-21T06:33:51.474Z,60
2017-03-21T06:34:32.430Z,55
2017-03-21T06:35:13.233Z,60
2017-03-21T06:35:53.924Z,65
2017-03-21T06:36:34.723Z,75
2017-03-21T06:37:15.457Z,85
2017-03-21T06:37:56.160Z,105
2017-03-21T06:38:37.061Z,115
2017-03-21T06:39:17.836Z,130
2017-03-21T06:39:58.607Z,140
2017-03-21T06:40:39.266Z,155
2017-03-21T06:41:19.913Z,155
2017-03-21T06:42:00.720Z,160
2017-03-21T06:42:41.350Z,155
2017-03-21T06:43:22.133Z,120
2017-03-21T06:44:03.031Z,90
2017-03-21T06:44:43.726Z,75
2017-03-21T06:45:24.905Z,60
2017-03-21T06:46:05.700Z,55
2017-03-21T06:46:46.543Z,55
2017-03-21T06:47:27.265Z,55
2017-03-21T06:48:07.939Z,55
2017-03-21T06:48:48.648Z,55
2017-03-21T06:49:29.336Z,55
2017-03-21T06:50:10.076Z,55
2017-03-21T06:50:50.868Z,55
2017-03-21T06:51:31.681Z,55
2017-03-21T06:52:12.278Z,45
2017-03-21T06:52:53.094Z,35
2017-03-21T06:53:33.881Z,35
2017-03-21T06:54:14.515Z,35
2017-03-21T06:54:55.187Z,40
2017-03-21T06:55:35.988Z,45
2017-03-21T06:56:16.774Z,40
2017-03-21T06:56:57.515Z,30
2017-03-21T06:57:38.377Z,20
2017-03-21T06:58:19.205Z,15
2017-03-21T06:58:59.982Z,15
2017-03-21T06:59:40.749Z,10
2017-03-21T07:00:21.506Z,10
2017-03-21T07:01:02.298Z,10
2017-03-21T07:01:43.070Z,5
2017-03-21T07:02:23.711Z,5
2017-03-21T07:03:04.427Z,5
2017-03-21T07:03:47.155Z,5
2017-03-21T07:04:27.412Z,5
2017-03-21T07:05:08.130Z,5
2017-03-21T07:05:48.951Z,5
2017-03-21T07:06:29.635Z,5
2017-03-21T07:07:10.429Z,5
2017-03-21T07:07:51.026Z,5
2017-03-21T07:08:31.724Z,5
2017-03-21T07:09:12.400Z,5
2017-03-21T07:09:53.112Z,5
2017-03-21T07:10:33.861Z,5
2017-03-21T07:11:14.539Z,5
2017-03-21T07:11:55.635Z,5
2017-03-21T07:12:36.313Z,5
2017-03-21T07:13:16.983Z,5
2017-03-21T07:13:57.811Z,5
2017-03-21T07:14:38.561Z,5
2017-03-21T07:15:19.332Z,5
2017-03-21T07:16:00.074Z,5
2017-03-21T07:16:40.715Z,5
2017-03-21T07:17:21.431Z,5
2017-03-21T07:18:02.301Z,5
2017-03-21T07:18:43.083Z,5
2017-03-21T07:19:23.878Z,5
2017-03-21T07:20:04.571Z,5
2017-03-21T07:20:45.482Z,5
2017-03-21T07:21:26.179Z,5
2017-03-21T07:22:06.998Z,5
2017-03-21T07:22:47.793Z,5
2017-03-21T07:23:28.652Z,10
2017-03-21T07:24:09.454Z,10
2017-03-21T07:24:50.129Z,10
2017-03-21T07:25:30.773Z,10
2017-03-21T07:26:11.543Z,15
2017-03-21T07:26:52.280Z,15
2017-03-21T07:27:33.004Z,15
2017-03-21T07:28:13.714Z,20
2017-03-21T07:28:54.401Z,20
2017-03-21T07:29:35.065Z,20
2017-03-21T07:30:15.815Z,25
2017-03-21T07:30:56.530Z,25
2017-03-21T07:31:37.268Z,25
2017-03-21T07:32:18.011Z,30
2017-03-21T07:32:58.743Z,30
2017-03-21T07:33:39.513Z,35
2017-03-21T07:34:20.166Z,35
2017-03-21T07:35:00.955Z,35
2017-03-21T07:35:41.740Z,35
2017-03-21T07:36:22.444Z,35
2017-03-21T07:37:03.095Z,35
2017-03-21T07:37:43.783Z,35
2017-03-21T07:38:24.699Z,35
2017-03-21T07:39:05.356Z,35
2017-03-21T07:39:46.095Z,35
2017-03-21T07:40:26.913Z,35
2017-03-21T07:41:07.655Z,35
2017-03-21T07:41:51.006Z,30
2017-03-21T07:42:33.406Z,30
2017-03-21T07:43:17.000Z,30
2017-03-21T07:44:01.022Z,30
2017-03-21T07:44:45.102Z,30
2017-03-21T07:45:28.518Z,35
2017-03-21T07:46:11.801Z,35
2017-03-21T07:46:52.521Z,35
2017-03-21T07:47:33.280Z,35
2017-03-21T07:48:14.050Z,30
2017-03-21T07:48:54.898Z,30
2017-03-21T07:49:35.678Z,30
2017-03-21T07:50:16.432Z,30
2017-03-21T07:50:57.264Z,30
2017-03-21T07:51:38.163Z,30
2017-03-21T07:52:18.835Z,25
2017-03-21T07:52:59.604Z,25
2017-03-21T07:53:40.328Z,25
2017-03-21T07:54:21.179Z,25
2017-03-21T07:55:01.958Z,25
2017-03-21T07:55:42.805Z,25
2017-03-21T07:56:23.582Z,30
2017-03-21T07:57:04.323Z,35
2017-03-21T07:57:45.073Z,35
2017-03-21T07:58:25.841Z,40
2017-03-21T07:59:06.687Z,50
2017-03-21T07:59:47.563Z,60
2017-03-21T08:00:28.295Z,80
2017-03-21T08:01:08.989Z,115
2017-03-21T08:01:49.710Z,285
2017-03-21T08:02:30.446Z,430
2017-03-21T08:03:11.181Z,445
2017-03-21T08:03:52.010Z,450
2017-03-21T08:04:32.776Z,465
2017-03-21T08:05:13.498Z,505
2017-03-21T08:05:54.233Z,460
2017-03-21T08:06:35.090Z,405
2017-03-21T08:07:15.879Z,370
2017-03-21T08:07:56.605Z,410
2017-03-21T08:08:37.348Z,385
2017-03-21T08:09:18.075Z,465
2017-03-21T08:09:58.822Z,495
2017-03-21T08:10:39.675Z,475
2017-03-21T08:11:20.420Z,470
2017-03-21T08:12:01.166Z,230
2017-03-21T08:12:41.857Z,185
2017-03-21T08:13:22.668Z,170
2017-03-21T08:14:03.423Z,160
2017-03-21T08:14:44.185Z,320
2017-03-21T08:15:24.897Z,300
2017-03-21T08:16:05.629Z,470
2017-03-21T08:16:46.453Z,675
2017-03-21T08:17:27.180Z,685
2017-03-21T08:18:07.886Z,630
2017-03-21T08:18:48.691Z,790
2017-03-21T08:19:29.465Z,620
2017-03-21T08:20:10.198Z,950
2017-03-21T08:20:50.816Z,955
2017-03-21T08:21:31.609Z,885
2017-03-21T08:22:12.345Z,1075
2017-03-21T08:22:53.105Z,715
2017-03-21T08:23:33.985Z,590
2017-03-21T08:24:14.696Z,440
2017-03-21T08:24:55.506Z,420
2017-03-21T08:25:36.269Z,540
2017-03-21T08:26:17.133Z,430
2017-03-21T08:26:57.803Z,350
2017-03-21T08:27:38.386Z,490
2017-03-21T08:28:19.165Z,325
2017-03-21T08:28:59.915Z,300
2017-03-21T08:29:40.559Z,440
2017-03-21T08:30:21.478Z,565
2017-03-21T08:31:02.227Z,365
2017-03-21T08:31:43.132Z,375
2017-03-21T08:32:23.968Z,445
2017-03-21T08:33:04.675Z,380
2017-03-21T08:33:45.347Z,515
2017-03-21T08:34:26.032Z,505
2017-03-21T08:35:06.770Z,490
2017-03-21T08:35:47.550Z,455
2017-03-21T08:36:28.444Z,425
2017-03-21T08:37:09.156Z,490
2017-03-21T08:37:49.937Z,470
2017-03-21T08:38:30.648Z,485
2017-03-21T08:39:11.461Z,440
2017-03-21T08:39:52.363Z,420
2017-03-21T08:40:33.056Z,420
2017-03-21T08:41:13.967Z,385
2017-03-21T08:41:54.724Z,365
2017-03-21T08:42:35.467Z,360
2017-03-21T08:43:16.204Z,355
2017-03-21T08:43:56.924Z,440
2017-03-21T08:44:37.850Z,380
2017-03-21T08:45:18.676Z,355
2017-03-21T08:45:59.574Z,350
2017-03-21T08:46:40.261Z,280
2017-03-21T08:47:20.899Z,345
2017-03-21T08:48:01.535Z,350
2017-03-21T08:48:42.305Z,305
2017-03-21T08:49:23.118Z,255
2017-03-21T08:50:03.799Z,210
2017-03-21T08:50:44.558Z,185
2017-03-21T08:51:25.286Z,170
2017-03-21T08:52:06.136Z,155
2017-03-21T08:52:46.825Z,135
2017-03-21T08:53:27.586Z,125
2017-03-21T08:54:08.500Z,120
2017-03-21T08:54:49.288Z,110
2017-03-21T08:55:30.037Z,110
2017-03-21T08:56:10.760Z,105
2017-03-21T08:56:51.572Z,105
2017-03-21T08:57:32.394Z,110
2017-03-21T08:58:13.093Z,115
2017-03-21T08:58:53.725Z,125
2017-03-21T08:59:34.516Z,140
2017-03-21T09:00:15.239Z,145
2017-03-21T09:00:55.920Z,145
2017-03-21T09:01:36.666Z,150
2017-03-21T09:02:17.352Z,170
2017-03-21T09:02:58.257Z,210
2017-03-21T09:03:38.985Z,230
2017-03-21T09:04:19.696Z,220
2017-03-21T09:05:00.459Z,195
2017-03-21T09:05:41.209Z,180
2017-03-21T09:06:21.912Z,180
2017-03-21T09:07:02.598Z,175
2017-03-21T09:07:43.387Z,160
2017-03-21T09:08:24.194Z,150
2017-03-21T09:09:04.963Z,145
2017-03-21T09:09:45.626Z,135
2017-03-21T09:10:26.543Z,120
2017-03-21T09:11:07.253Z,110
2017-03-21T09:11:48.106Z,100
2017-03-21T09:12:28.888Z,95
2017-03-21T09:13:09.667Z,85
2017-03-21T09:13:50.351Z,85
2017-03-21T09:14:31.014Z,80
2017-03-21T09:15:11.679Z,80
2017-03-21T09:15:52.401Z,75
2017-03-21T09:16:33.185Z,75
2017-03-21T09:17:13.869Z,80
2017-03-21T09:17:54.710Z,85
2017-03-21T09:18:35.407Z,100
2017-03-21T09:19:16.215Z,95
2017-03-21T09:19:57.051Z,85
2017-03-21T09:20:37.968Z,75
2017-03-21T09:21:18.721Z,80
2017-03-21T09:21:59.447Z,90
2017-03-21T09:22:40.059Z,95
2017-03-21T09:23:20.886Z,95
2017-03-21T09:24:01.703Z,90
2017-03-21T09:24:42.391Z,90
2017-03-21T09:25:23.130Z,95
2017-03-21T09:26:03.838Z,100
2017-03-21T09:26:44.692Z,100
2017-03-21T09:27:25.425Z,95
2017-03-21T09:28:06.334Z,85
2017-03-21T09:28:47.009Z,75
2017-03-21T09:29:27.732Z,80
2017-03-21T09:30:08.449Z,85
2017-03-21T09:30:49.240Z,95
2017-03-21T09:31:29.937Z,90
2017-03-21T09:32:10.692Z,80
2017-03-21T09:32:51.403Z,80
2017-03-21T09:33:32.226Z,100
2017-03-21T09:34:12.938Z,120
2017-03-21T09:34:53.741Z,160
2017-03-21T09:35:34.558Z,180
2017-03-21T09:36:15.336Z,215
2017-03-21T09:36:56.090Z,195
2017-03-21T09:37:36.800Z,185
2017-03-21T09:38:17.645Z,170
2017-03-21T09:38:58.379Z,160
2017-03-21T09:39:39.140Z,170
2017-03-21T09:40:19.914Z,160
2017-03-21T09:41:00.642Z,155
2017-03-21T09:41:41.541Z,145
2017-03-21T09:42:22.256Z,125
2017-03-21T09:43:02.903Z,105
2017-03-21T09:43:43.690Z,90
2017-03-21T09:44:24.565Z,85
2017-03-21T09:45:05.294Z,85
2017-03-21T09:45:45.983Z,85
2017-03-21T09:46:26.749Z,80
2017-03-21T09:47:07.536Z,75
2017-03-21T09:47:48.242Z,70
2017-03-21T09:48:28.844Z,65
2017-03-21T09:49:09.536Z,65
2017-03-21T09:49:50.280Z,70
2017-03-21T09:50:30.935Z,75